sensor_id;sensor_type;location;lat;lon;timestamp;P1;durP1;ratioP1;P2;durP2;ratioP2
50219;SDS011;36110;51.536;7.562;2023-02-15T00:01:37;11.05;;;8.32;;
50219;SDS011;36110;51.536;7.562;2023-02-15T00:04:03;11.90;;;8.07;;
50219;SDS011;36110;51.536;7.562;2023-02-15T00:06:29;10.10;;;7.75;;
50219;SDS011;36110;51.536;7.562;2023-02-15T00:08:55;10.18;;;7.65;;
50219;SDS011;36110;51.536;7.562;2023-02-15T00:11:20;11.27;;;8.30;;
50219;SDS011;36110;51.536;7.562;2023-02-15T00:14:05;11.18;;;8.00;;
50219;SDS011;36110;51.536;7.562;2023-02-15T00:16:32;11.52;;;7.80;;
50219;SDS011;36110;51.536;7.562;2023-02-15T00:18:58;10.73;;;7.85;;
50219;SDS011;36110;51.536;7.562;2023-02-15T00:21:26;10.02;;;7.30;;
50219;SDS011;36110;51.536;7.562;2023-02-15T00:23:52;10.52;;;7.97;;
50219;SDS011;36110;51.536;7.562;2023-02-15T00:26:17;11.68;;;8.30;;
50219;SDS011;36110;51.536;7.562;2023-02-15T00:28:42;10.35;;;7.60;;
50219;SDS011;36110;51.536;7.562;2023-02-15T00:31:09;9.25;;;7.63;;
50219;SDS011;36110;51.536;7.562;2023-02-15T00:33:35;9.70;;;7.32;;
50219;SDS011;36110;51.536;7.562;2023-02-15T00:36:02;10.65;;;7.60;;
50219;SDS011;36110;51.536;7.562;2023-02-15T00:38:29;9.77;;;6.97;;
50219;SDS011;36110;51.536;7.562;2023-02-15T00:40:55;10.02;;;7.70;;
50219;SDS011;36110;51.536;7.562;2023-02-15T00:43:21;10.73;;;7.45;;
50219;SDS011;36110;51.536;7.562;2023-02-15T00:45:47;9.57;;;7.43;;
50219;SDS011;36110;51.536;7.562;2023-02-15T00:48:12;9.88;;;7.03;;
50219;SDS011;36110;51.536;7.562;2023-02-15T00:50:37;9.98;;;7.72;;
50219;SDS011;36110;51.536;7.562;2023-02-15T00:53:03;9.43;;;7.32;;
50219;SDS011;36110;51.536;7.562;2023-02-15T00:55:28;10.68;;;7.50;;
50219;SDS011;36110;51.536;7.562;2023-02-15T00:57:54;9.63;;;7.32;;
50219;SDS011;36110;51.536;7.562;2023-02-15T01:00:19;8.77;;;6.82;;
50219;SDS011;36110;51.536;7.562;2023-02-15T01:02:44;9.30;;;6.88;;
50219;SDS011;36110;51.536;7.562;2023-02-15T01:05:10;10.15;;;7.07;;
50219;SDS011;36110;51.536;7.562;2023-02-15T01:07:35;10.57;;;7.38;;
50219;SDS011;36110;51.536;7.562;2023-02-15T01:10:00;10.13;;;7.03;;
50219;SDS011;36110;51.536;7.562;2023-02-15T01:12:27;9.13;;;7.15;;
50219;SDS011;36110;51.536;7.562;2023-02-15T01:14:52;9.35;;;7.10;;
50219;SDS011;36110;51.536;7.562;2023-02-15T01:17:17;10.43;;;7.00;;
50219;SDS011;36110;51.536;7.562;2023-02-15T01:19:43;9.43;;;7.63;;
50219;SDS011;36110;51.536;7.562;2023-02-15T01:22:08;10.13;;;7.25;;
50219;SDS011;36110;51.536;7.562;2023-02-15T01:24:33;8.73;;;6.53;;
50219;SDS011;36110;51.536;7.562;2023-02-15T01:26:58;11.02;;;6.50;;
50219;SDS011;36110;51.536;7.562;2023-02-15T01:29:24;9.63;;;6.82;;
50219;SDS011;36110;51.536;7.562;2023-02-15T01:31:49;8.55;;;6.70;;
50219;SDS011;36110;51.536;7.562;2023-02-15T01:34:14;9.07;;;6.68;;
50219;SDS011;36110;51.536;7.562;2023-02-15T01:36:40;9.52;;;6.80;;
50219;SDS011;36110;51.536;7.562;2023-02-15T01:39:05;9.65;;;6.93;;
50219;SDS011;36110;51.536;7.562;2023-02-15T01:41:32;8.25;;;6.53;;
50219;SDS011;36110;51.536;7.562;2023-02-15T01:43:58;10.23;;;6.88;;
50219;SDS011;36110;51.536;7.562;2023-02-15T01:46:50;8.70;;;6.65;;
50219;SDS011;36110;51.536;7.562;2023-02-15T01:49:17;7.97;;;6.25;;
50219;SDS011;36110;51.536;7.562;2023-02-15T01:51:45;8.50;;;6.80;;
50219;SDS011;36110;51.536;7.562;2023-02-15T01:56:49;10.00;;;6.60;;
50219;SDS011;36110;51.536;7.562;2023-02-15T01:59:16;8.30;;;6.53;;
50219;SDS011;36110;51.536;7.562;2023-02-15T02:01:43;8.13;;;6.13;;
50219;SDS011;36110;51.536;7.562;2023-02-15T02:04:11;8.48;;;6.60;;
50219;SDS011;36110;51.536;7.562;2023-02-15T02:06:40;7.75;;;6.28;;
50219;SDS011;36110;51.536;7.562;2023-02-15T02:09:06;7.75;;;6.30;;
50219;SDS011;36110;51.536;7.562;2023-02-15T02:11:32;7.78;;;6.00;;
50219;SDS011;36110;51.536;7.562;2023-02-15T02:13:57;8.88;;;6.68;;
50219;SDS011;36110;51.536;7.562;2023-02-15T02:19:16;8.48;;;6.57;;
50219;SDS011;36110;51.536;7.562;2023-02-15T02:32:48;7.93;;;6.32;;
50219;SDS011;36110;51.536;7.562;2023-02-15T02:38:18;9.13;;;7.00;;
50219;SDS011;36110;51.536;7.562;2023-02-15T02:46:29;8.48;;;6.40;;
50219;SDS011;36110;51.536;7.562;2023-02-15T02:48:56;8.75;;;6.63;;
50219;SDS011;36110;51.536;7.562;2023-02-15T02:51:22;8.25;;;5.85;;
50219;SDS011;36110;51.536;7.562;2023-02-15T02:53:51;8.05;;;5.97;;
50219;SDS011;36110;51.536;7.562;2023-02-15T02:56:24;7.55;;;5.68;;
50219;SDS011;36110;51.536;7.562;2023-02-15T02:59:31;8.27;;;6.30;;
50219;SDS011;36110;51.536;7.562;2023-02-15T03:01:58;7.40;;;5.80;;
50219;SDS011;36110;51.536;7.562;2023-02-15T03:04:28;7.33;;;5.93;;
50219;SDS011;36110;51.536;7.562;2023-02-15T03:06:57;6.97;;;5.53;;
50219;SDS011;36110;51.536;7.562;2023-02-15T03:09:29;8.27;;;6.20;;
50219;SDS011;36110;51.536;7.562;2023-02-15T03:12:12;8.93;;;6.15;;
50219;SDS011;36110;51.536;7.562;2023-02-15T03:14:40;7.35;;;5.90;;
50219;SDS011;36110;51.536;7.562;2023-02-15T03:17:07;7.72;;;6.15;;
50219;SDS011;36110;51.536;7.562;2023-02-15T03:19:33;7.05;;;5.55;;
50219;SDS011;36110;51.536;7.562;2023-02-15T03:22:04;7.65;;;6.00;;
50219;SDS011;36110;51.536;7.562;2023-02-15T03:24:43;7.95;;;5.90;;
50219;SDS011;36110;51.536;7.562;2023-02-15T03:27:11;6.93;;;5.57;;
50219;SDS011;36110;51.536;7.562;2023-02-15T03:29:42;7.82;;;5.68;;
50219;SDS011;36110;51.536;7.562;2023-02-15T03:32:09;7.70;;;5.88;;
50219;SDS011;36110;51.536;7.562;2023-02-15T03:34:35;7.57;;;5.97;;
50219;SDS011;36110;51.536;7.562;2023-02-15T03:40:18;7.53;;;6.05;;
50219;SDS011;36110;51.536;7.562;2023-02-15T03:45:37;7.85;;;5.90;;
50219;SDS011;36110;51.536;7.562;2023-02-15T03:48:03;8.20;;;6.13;;
50219;SDS011;36110;51.536;7.562;2023-02-15T03:50:30;7.47;;;5.93;;
50219;SDS011;36110;51.536;7.562;2023-02-15T03:53:16;7.17;;;5.60;;
50219;SDS011;36110;51.536;7.562;2023-02-15T03:55:53;9.48;;;5.95;;
50219;SDS011;36110;51.536;7.562;2023-02-15T03:58:19;7.70;;;5.68;;
50219;SDS011;36110;51.536;7.562;2023-02-15T04:01:04;8.60;;;6.03;;
50219;SDS011;36110;51.536;7.562;2023-02-15T04:04:05;7.00;;;5.72;;
50219;SDS011;36110;51.536;7.562;2023-02-15T04:06:32;6.97;;;5.32;;
50219;SDS011;36110;51.536;7.562;2023-02-15T04:08:58;6.78;;;5.20;;
50219;SDS011;36110;51.536;7.562;2023-02-15T04:11:42;8.15;;;5.35;;
50219;SDS011;36110;51.536;7.562;2023-02-15T04:14:07;7.20;;;5.55;;
50219;SDS011;36110;51.536;7.562;2023-02-15T04:16:51;9.00;;;5.80;;
50219;SDS011;36110;51.536;7.562;2023-02-15T04:19:16;6.25;;;5.03;;
50219;SDS011;36110;51.536;7.562;2023-02-15T04:22:00;6.75;;;5.47;;
50219;SDS011;36110;51.536;7.562;2023-02-15T04:24:44;7.28;;;5.57;;
50219;SDS011;36110;51.536;7.562;2023-02-15T04:27:28;7.57;;;5.30;;
50219;SDS011;36110;51.536;7.562;2023-02-15T04:29:53;7.22;;;5.90;;
50219;SDS011;36110;51.536;7.562;2023-02-15T04:32:19;6.80;;;5.55;;
50219;SDS011;36110;51.536;7.562;2023-02-15T04:34:44;7.50;;;5.25;;
50219;SDS011;36110;51.536;7.562;2023-02-15T04:37:09;6.82;;;5.25;;
50219;SDS011;36110;51.536;7.562;2023-02-15T04:39:35;7.70;;;5.40;;
50219;SDS011;36110;51.536;7.562;2023-02-15T04:42:00;6.78;;;5.25;;
50219;SDS011;36110;51.536;7.562;2023-02-15T04:44:25;8.15;;;5.68;;
50219;SDS011;36110;51.536;7.562;2023-02-15T04:46:51;7.35;;;5.55;;
50219;SDS011;36110;51.536;7.562;2023-02-15T04:49:16;7.75;;;5.50;;
50219;SDS011;36110;51.536;7.562;2023-02-15T04:51:41;8.20;;;5.50;;
50219;SDS011;36110;51.536;7.562;2023-02-15T04:54:08;7.13;;;5.53;;
50219;SDS011;36110;51.536;7.562;2023-02-15T04:56:34;7.35;;;5.47;;
50219;SDS011;36110;51.536;7.562;2023-02-15T04:59:02;8.05;;;5.72;;
50219;SDS011;36110;51.536;7.562;2023-02-15T05:01:27;7.28;;;5.65;;
50219;SDS011;36110;51.536;7.562;2023-02-15T05:03:53;6.70;;;5.35;;
50219;SDS011;36110;51.536;7.562;2023-02-15T05:06:18;6.60;;;5.22;;
50219;SDS011;36110;51.536;7.562;2023-02-15T05:08:43;7.50;;;5.20;;
50219;SDS011;36110;51.536;7.562;2023-02-15T05:11:09;6.93;;;5.63;;
50219;SDS011;36110;51.536;7.562;2023-02-15T05:13:34;7.38;;;5.65;;
50219;SDS011;36110;51.536;7.562;2023-02-15T05:15:59;7.30;;;5.35;;
50219;SDS011;36110;51.536;7.562;2023-02-15T05:18:25;7.53;;;5.22;;
50219;SDS011;36110;51.536;7.562;2023-02-15T05:20:50;7.47;;;5.43;;
50219;SDS011;36110;51.536;7.562;2023-02-15T05:23:15;6.72;;;5.18;;
50219;SDS011;36110;51.536;7.562;2023-02-15T05:25:41;7.32;;;5.20;;
50219;SDS011;36110;51.536;7.562;2023-02-15T05:28:26;6.72;;;5.13;;
50219;SDS011;36110;51.536;7.562;2023-02-15T05:33:32;6.85;;;5.28;;
50219;SDS011;36110;51.536;7.562;2023-02-15T05:35:58;6.63;;;5.25;;
50219;SDS011;36110;51.536;7.562;2023-02-15T05:38:32;6.45;;;5.30;;
50219;SDS011;36110;51.536;7.562;2023-02-15T05:40:58;6.30;;;4.95;;
50219;SDS011;36110;51.536;7.562;2023-02-15T05:43:23;6.50;;;4.97;;
50219;SDS011;36110;51.536;7.562;2023-02-15T05:45:50;7.95;;;5.63;;
50219;SDS011;36110;51.536;7.562;2023-02-15T05:48:18;7.22;;;5.55;;
50219;SDS011;36110;51.536;7.562;2023-02-15T05:50:43;6.57;;;5.20;;
50219;SDS011;36110;51.536;7.562;2023-02-15T05:53:09;7.43;;;5.32;;
50219;SDS011;36110;51.536;7.562;2023-02-15T05:55:37;6.78;;;5.30;;
50219;SDS011;36110;51.536;7.562;2023-02-15T05:58:05;6.82;;;5.18;;
50219;SDS011;36110;51.536;7.562;2023-02-15T06:00:32;7.93;;;5.45;;
50219;SDS011;36110;51.536;7.562;2023-02-15T06:02:57;7.47;;;5.60;;
50219;SDS011;36110;51.536;7.562;2023-02-15T06:05:23;7.57;;;5.30;;
50219;SDS011;36110;51.536;7.562;2023-02-15T06:07:48;6.75;;;5.15;;
50219;SDS011;36110;51.536;7.562;2023-02-15T06:10:13;6.70;;;5.10;;
50219;SDS011;36110;51.536;7.562;2023-02-15T06:12:39;6.40;;;5.07;;
50219;SDS011;36110;51.536;7.562;2023-02-15T06:15:05;6.70;;;5.28;;
50219;SDS011;36110;51.536;7.562;2023-02-15T06:17:31;6.82;;;5.18;;
50219;SDS011;36110;51.536;7.562;2023-02-15T06:20:03;7.50;;;5.53;;
50219;SDS011;36110;51.536;7.562;2023-02-15T06:22:31;6.35;;;5.07;;
50219;SDS011;36110;51.536;7.562;2023-02-15T06:24:56;6.25;;;5.05;;
50219;SDS011;36110;51.536;7.562;2023-02-15T06:27:21;6.50;;;5.15;;
50219;SDS011;36110;51.536;7.562;2023-02-15T06:29:47;6.28;;;5.10;;
50219;SDS011;36110;51.536;7.562;2023-02-15T06:32:12;9.75;;;5.65;;
50219;SDS011;36110;51.536;7.562;2023-02-15T06:34:37;7.63;;;5.63;;
50219;SDS011;36110;51.536;7.562;2023-02-15T06:37:03;7.03;;;5.20;;
50219;SDS011;36110;51.536;7.562;2023-02-15T06:39:28;7.65;;;5.70;;
50219;SDS011;36110;51.536;7.562;2023-02-15T06:41:53;6.85;;;5.53;;
50219;SDS011;36110;51.536;7.562;2023-02-15T06:44:21;7.20;;;5.03;;
50219;SDS011;36110;51.536;7.562;2023-02-15T06:46:46;25.88;;;15.57;;
50219;SDS011;36110;51.536;7.562;2023-02-15T06:49:11;25.85;;;15.50;;
50219;SDS011;36110;51.536;7.562;2023-02-15T06:51:37;27.27;;;14.82;;
50219;SDS011;36110;51.536;7.562;2023-02-15T06:54:02;27.40;;;15.75;;
50219;SDS011;36110;51.536;7.562;2023-02-15T06:56:27;25.52;;;15.30;;
50219;SDS011;36110;51.536;7.562;2023-02-15T06:58:53;24.95;;;15.25;;
50219;SDS011;36110;51.536;7.562;2023-02-15T07:01:18;26.13;;;16.08;;
50219;SDS011;36110;51.536;7.562;2023-02-15T07:03:44;25.83;;;14.77;;
50219;SDS011;36110;51.536;7.562;2023-02-15T07:06:09;30.52;;;15.25;;
50219;SDS011;36110;51.536;7.562;2023-02-15T07:08:35;24.08;;;15.40;;
50219;SDS011;36110;51.536;7.562;2023-02-15T07:11:01;26.40;;;15.50;;
50219;SDS011;36110;51.536;7.562;2023-02-15T07:13:45;26.38;;;15.15;;
50219;SDS011;36110;51.536;7.562;2023-02-15T07:16:11;26.92;;;15.70;;
50219;SDS011;36110;51.536;7.562;2023-02-15T07:18:37;29.60;;;16.17;;
50219;SDS011;36110;51.536;7.562;2023-02-15T07:21:03;27.75;;;16.02;;
50219;SDS011;36110;51.536;7.562;2023-02-15T07:23:28;24.02;;;15.18;;
50219;SDS011;36110;51.536;7.562;2023-02-15T07:25:57;26.27;;;15.88;;
50219;SDS011;36110;51.536;7.562;2023-02-15T07:28:23;29.33;;;15.82;;
50219;SDS011;36110;51.536;7.562;2023-02-15T07:30:49;23.60;;;15.20;;
50219;SDS011;36110;51.536;7.562;2023-02-15T07:33:14;25.60;;;15.30;;
50219;SDS011;36110;51.536;7.562;2023-02-15T07:35:52;28.27;;;15.57;;
50219;SDS011;36110;51.536;7.562;2023-02-15T07:38:19;24.92;;;15.45;;
50219;SDS011;36110;51.536;7.562;2023-02-15T07:40:45;24.60;;;15.60;;
50219;SDS011;36110;51.536;7.562;2023-02-15T07:43:11;24.25;;;15.18;;
50219;SDS011;36110;51.536;7.562;2023-02-15T07:45:37;24.80;;;15.32;;
50219;SDS011;36110;51.536;7.562;2023-02-15T07:48:03;35.65;;;15.50;;
50219;SDS011;36110;51.536;7.562;2023-02-15T07:50:29;23.95;;;15.02;;
50219;SDS011;36110;51.536;7.562;2023-02-15T07:52:54;23.63;;;15.27;;
50219;SDS011;36110;51.536;7.562;2023-02-15T07:55:20;27.42;;;16.42;;
50219;SDS011;36110;51.536;7.562;2023-02-15T07:57:46;27.10;;;16.75;;
50219;SDS011;36110;51.536;7.562;2023-02-15T08:00:13;26.00;;;15.52;;
50219;SDS011;36110;51.536;7.562;2023-02-15T08:02:39;24.00;;;15.60;;
50219;SDS011;36110;51.536;7.562;2023-02-15T08:05:05;25.00;;;15.73;;
50219;SDS011;36110;51.536;7.562;2023-02-15T08:07:30;26.73;;;15.95;;
50219;SDS011;36110;51.536;7.562;2023-02-15T08:09:56;27.17;;;15.60;;
50219;SDS011;36110;51.536;7.562;2023-02-15T08:12:21;26.98;;;15.57;;
50219;SDS011;36110;51.536;7.562;2023-02-15T08:14:46;26.02;;;15.32;;
50219;SDS011;36110;51.536;7.562;2023-02-15T08:17:12;23.65;;;15.05;;
50219;SDS011;36110;51.536;7.562;2023-02-15T08:19:37;24.35;;;15.55;;
50219;SDS011;36110;51.536;7.562;2023-02-15T08:22:03;25.83;;;15.60;;
50219;SDS011;36110;51.536;7.562;2023-02-15T08:24:31;26.13;;;15.45;;
50219;SDS011;36110;51.536;7.562;2023-02-15T08:27:00;24.52;;;15.57;;
50219;SDS011;36110;51.536;7.562;2023-02-15T08:29:29;25.60;;;15.50;;
50219;SDS011;36110;51.536;7.562;2023-02-15T08:31:56;29.67;;;18.73;;
50219;SDS011;36110;51.536;7.562;2023-02-15T08:34:27;34.10;;;19.92;;
50219;SDS011;36110;51.536;7.562;2023-02-15T08:36:54;24.33;;;15.40;;
50219;SDS011;36110;51.536;7.562;2023-02-15T08:39:21;26.20;;;16.15;;
50219;SDS011;36110;51.536;7.562;2023-02-15T08:41:46;23.85;;;15.02;;
50219;SDS011;36110;51.536;7.562;2023-02-15T08:44:13;20.00;;;14.30;;
50219;SDS011;36110;51.536;7.562;2023-02-15T08:46:40;21.38;;;14.15;;
50219;SDS011;36110;51.536;7.562;2023-02-15T08:49:07;22.60;;;14.35;;
50219;SDS011;36110;51.536;7.562;2023-02-15T08:51:33;23.38;;;13.68;;
50219;SDS011;36110;51.536;7.562;2023-02-15T08:54:00;21.48;;;14.10;;
50219;SDS011;36110;51.536;7.562;2023-02-15T08:56:28;20.77;;;13.95;;
50219;SDS011;36110;51.536;7.562;2023-02-15T08:58:55;20.73;;;14.10;;
50219;SDS011;36110;51.536;7.562;2023-02-15T09:01:21;22.85;;;13.35;;
50219;SDS011;36110;51.536;7.562;2023-02-15T09:03:49;21.05;;;13.02;;
50219;SDS011;36110;51.536;7.562;2023-02-15T09:06:18;21.13;;;14.25;;
50219;SDS011;36110;51.536;7.562;2023-02-15T09:08:44;30.50;;;17.88;;
50219;SDS011;36110;51.536;7.562;2023-02-15T09:13:41;19.33;;;13.40;;
50219;SDS011;36110;51.536;7.562;2023-02-15T09:16:07;21.73;;;14.75;;
50219;SDS011;36110;51.536;7.562;2023-02-15T09:18:35;19.75;;;13.10;;
50219;SDS011;36110;51.536;7.562;2023-02-15T09:21:12;36.92;;;22.25;;
50219;SDS011;36110;51.536;7.562;2023-02-15T09:23:42;23.98;;;14.00;;
50219;SDS011;36110;51.536;7.562;2023-02-15T09:26:09;45.13;;;22.88;;
50219;SDS011;36110;51.536;7.562;2023-02-15T09:28:36;44.15;;;25.55;;
50219;SDS011;36110;51.536;7.562;2023-02-15T09:31:09;41.80;;;23.85;;
50219;SDS011;36110;51.536;7.562;2023-02-15T09:33:36;36.50;;;21.55;;
50219;SDS011;36110;51.536;7.562;2023-02-15T09:36:02;40.15;;;22.73;;
50219;SDS011;36110;51.536;7.562;2023-02-15T09:38:28;37.05;;;21.95;;
50219;SDS011;36110;51.536;7.562;2023-02-15T09:43:51;42.13;;;21.27;;
50219;SDS011;36110;51.536;7.562;2023-02-15T09:49:36;35.55;;;20.75;;
50219;SDS011;36110;51.536;7.562;2023-02-15T09:58:25;35.75;;;20.42;;
50219;SDS011;36110;51.536;7.562;2023-02-15T10:01:20;36.30;;;19.75;;
50219;SDS011;36110;51.536;7.562;2023-02-15T10:06:55;31.15;;;18.73;;
50219;SDS011;36110;51.536;7.562;2023-02-15T10:21:04;29.13;;;16.48;;
50219;SDS011;36110;51.536;7.562;2023-02-15T10:26:45;33.13;;;15.68;;
50219;SDS011;36110;51.536;7.562;2023-02-15T10:34:50;27.30;;;14.40;;
50219;SDS011;36110;51.536;7.562;2023-02-15T10:45:14;20.38;;;11.88;;
50219;SDS011;36110;51.536;7.562;2023-02-15T10:47:55;16.95;;;11.68;;
50219;SDS011;36110;51.536;7.562;2023-02-15T10:50:29;22.95;;;12.73;;
50219;SDS011;36110;51.536;7.562;2023-02-15T10:55:50;21.55;;;12.35;;
50219;SDS011;36110;51.536;7.562;2023-02-15T11:06:59;21.45;;;12.05;;
50219;SDS011;36110;51.536;7.562;2023-02-15T11:09:40;18.60;;;11.02;;
50219;SDS011;36110;51.536;7.562;2023-02-15T11:12:10;17.33;;;10.82;;
50219;SDS011;36110;51.536;7.562;2023-02-15T11:14:39;27.45;;;11.70;;
50219;SDS011;36110;51.536;7.562;2023-02-15T11:17:10;24.73;;;11.30;;
50219;SDS011;36110;51.536;7.562;2023-02-15T11:22:51;14.57;;;9.43;;
50219;SDS011;36110;51.536;7.562;2023-02-15T11:25:28;21.85;;;11.88;;
50219;SDS011;36110;51.536;7.562;2023-02-15T11:27:55;22.40;;;11.88;;
50219;SDS011;36110;51.536;7.562;2023-02-15T11:30:25;16.35;;;10.05;;
50219;SDS011;36110;51.536;7.562;2023-02-15T11:32:53;27.30;;;11.93;;
50219;SDS011;36110;51.536;7.562;2023-02-15T11:38:05;22.08;;;10.73;;
50219;SDS011;36110;51.536;7.562;2023-02-15T11:40:35;14.90;;;9.18;;
50219;SDS011;36110;51.536;7.562;2023-02-15T11:43:10;20.38;;;10.43;;
50219;SDS011;36110;51.536;7.562;2023-02-15T11:45:39;13.85;;;9.68;;
50219;SDS011;36110;51.536;7.562;2023-02-15T11:48:10;18.48;;;10.68;;
50219;SDS011;36110;51.536;7.562;2023-02-15T11:50:36;12.82;;;9.52;;
50219;SDS011;36110;51.536;7.562;2023-02-15T11:53:04;20.15;;;11.18;;
50219;SDS011;36110;51.536;7.562;2023-02-15T11:55:32;23.83;;;10.80;;
50219;SDS011;36110;51.536;7.562;2023-02-15T12:00:33;24.10;;;10.23;;
50219;SDS011;36110;51.536;7.562;2023-02-15T12:03:02;15.52;;;9.35;;
50219;SDS011;36110;51.536;7.562;2023-02-15T12:05:53;13.13;;;8.57;;
50219;SDS011;36110;51.536;7.562;2023-02-15T12:08:22;14.43;;;8.77;;
50219;SDS011;36110;51.536;7.562;2023-02-15T12:10:57;14.02;;;9.82;;
50219;SDS011;36110;51.536;7.562;2023-02-15T12:13:24;13.73;;;9.40;;
50219;SDS011;36110;51.536;7.562;2023-02-15T12:15:53;16.58;;;8.55;;
50219;SDS011;36110;51.536;7.562;2023-02-15T12:18:24;14.85;;;8.65;;
50219;SDS011;36110;51.536;7.562;2023-02-15T12:21:05;12.48;;;8.57;;
50219;SDS011;36110;51.536;7.562;2023-02-15T12:23:33;14.20;;;8.68;;
50219;SDS011;36110;51.536;7.562;2023-02-15T12:25:59;13.05;;;9.02;;
50219;SDS011;36110;51.536;7.562;2023-02-15T12:30:50;12.25;;;7.85;;
50219;SDS011;36110;51.536;7.562;2023-02-15T12:33:26;15.15;;;8.00;;
50219;SDS011;36110;51.536;7.562;2023-02-15T12:36:18;12.73;;;8.73;;
50219;SDS011;36110;51.536;7.562;2023-02-15T12:38:39;17.10;;;7.60;;
50219;SDS011;36110;51.536;7.562;2023-02-15T12:41:24;13.48;;;7.80;;
50219;SDS011;36110;51.536;7.562;2023-02-15T12:44:05;13.57;;;8.32;;
50219;SDS011;36110;51.536;7.562;2023-02-15T12:49:33;12.82;;;7.40;;
50219;SDS011;36110;51.536;7.562;2023-02-15T12:52:04;13.07;;;7.63;;
50219;SDS011;36110;51.536;7.562;2023-02-15T12:54:51;10.82;;;7.35;;
50219;SDS011;36110;51.536;7.562;2023-02-15T12:57:32;14.80;;;7.15;;
50219;SDS011;36110;51.536;7.562;2023-02-15T12:59:59;12.27;;;7.03;;
50219;SDS011;36110;51.536;7.562;2023-02-15T13:02:42;13.20;;;7.60;;
50219;SDS011;36110;51.536;7.562;2023-02-15T13:07:57;15.20;;;7.20;;
50219;SDS011;36110;51.536;7.562;2023-02-15T13:10:29;12.18;;;7.63;;
50219;SDS011;36110;51.536;7.562;2023-02-15T13:12:56;14.85;;;7.65;;
50219;SDS011;36110;51.536;7.562;2023-02-15T13:15:41;13.23;;;8.00;;
50219;SDS011;36110;51.536;7.562;2023-02-15T13:18:11;13.18;;;7.57;;
50219;SDS011;36110;51.536;7.562;2023-02-15T13:20:39;15.55;;;6.97;;
50219;SDS011;36110;51.536;7.562;2023-02-15T13:23:06;10.95;;;7.00;;
50219;SDS011;36110;51.536;7.562;2023-02-15T13:25:44;12.32;;;8.15;;
50219;SDS011;36110;51.536;7.562;2023-02-15T13:28:15;14.45;;;7.60;;
50219;SDS011;36110;51.536;7.562;2023-02-15T13:30:43;13.30;;;7.93;;
50219;SDS011;36110;51.536;7.562;2023-02-15T13:33:17;14.73;;;9.23;;
50219;SDS011;36110;51.536;7.562;2023-02-15T13:35:49;13.77;;;7.85;;
50219;SDS011;36110;51.536;7.562;2023-02-15T13:40:55;12.95;;;8.60;;
50219;SDS011;36110;51.536;7.562;2023-02-15T13:43:30;14.20;;;8.43;;
50219;SDS011;36110;51.536;7.562;2023-02-15T13:46:19;17.58;;;8.15;;
50219;SDS011;36110;51.536;7.562;2023-02-15T13:48:58;10.77;;;7.45;;
50219;SDS011;36110;51.536;7.562;2023-02-15T13:54:19;12.07;;;7.95;;
50219;SDS011;36110;51.536;7.562;2023-02-15T13:57:24;13.75;;;8.07;;
50219;SDS011;36110;51.536;7.562;2023-02-15T14:00:03;12.63;;;8.80;;
50219;SDS011;36110;51.536;7.562;2023-02-15T14:06:00;13.60;;;8.07;;
50219;SDS011;36110;51.536;7.562;2023-02-15T14:08:55;12.50;;;7.82;;
50219;SDS011;36110;51.536;7.562;2023-02-15T14:19:13;12.88;;;7.75;;
50219;SDS011;36110;51.536;7.562;2023-02-15T14:21:47;9.73;;;6.90;;
50219;SDS011;36110;51.536;7.562;2023-02-15T14:24:17;13.43;;;8.30;;
50219;SDS011;36110;51.536;7.562;2023-02-15T14:31:59;17.70;;;8.63;;
50219;SDS011;36110;51.536;7.562;2023-02-15T14:37:26;13.32;;;8.00;;
50219;SDS011;36110;51.536;7.562;2023-02-15T14:46:07;16.45;;;8.25;;
50219;SDS011;36110;51.536;7.562;2023-02-15T14:49:25;11.38;;;7.40;;
50219;SDS011;36110;51.536;7.562;2023-02-15T14:56:40;15.52;;;8.18;;
50219;SDS011;36110;51.536;7.562;2023-02-15T15:01:52;17.02;;;8.48;;
50219;SDS011;36110;51.536;7.562;2023-02-15T15:04:23;12.40;;;7.68;;
50219;SDS011;36110;51.536;7.562;2023-02-15T15:06:58;11.38;;;7.22;;
50219;SDS011;36110;51.536;7.562;2023-02-15T15:09:25;14.90;;;8.13;;
50219;SDS011;36110;51.536;7.562;2023-02-15T15:11:53;11.77;;;6.85;;
50219;SDS011;36110;51.536;7.562;2023-02-15T15:20:03;14.57;;;7.70;;
50219;SDS011;36110;51.536;7.562;2023-02-15T15:22:32;11.30;;;6.45;;
50219;SDS011;36110;51.536;7.562;2023-02-15T15:25:09;16.60;;;8.70;;
50219;SDS011;36110;51.536;7.562;2023-02-15T15:27:53;13.20;;;7.25;;
50219;SDS011;36110;51.536;7.562;2023-02-15T15:41:25;16.90;;;8.85;;
50219;SDS011;36110;51.536;7.562;2023-02-15T15:47:19;11.95;;;6.43;;
50219;SDS011;36110;51.536;7.562;2023-02-15T15:49:48;17.35;;;8.82;;
50219;SDS011;36110;51.536;7.562;2023-02-15T15:52:15;9.40;;;6.13;;
50219;SDS011;36110;51.536;7.562;2023-02-15T15:54:41;15.23;;;8.40;;
50219;SDS011;36110;51.536;7.562;2023-02-15T15:57:12;12.70;;;5.45;;
50219;SDS011;36110;51.536;7.562;2023-02-15T15:59:44;19.73;;;9.10;;
50219;SDS011;36110;51.536;7.562;2023-02-15T16:02:11;18.08;;;9.27;;
50219;SDS011;36110;51.536;7.562;2023-02-15T16:04:40;15.63;;;7.00;;
50219;SDS011;36110;51.536;7.562;2023-02-15T16:07:13;20.00;;;9.50;;
50219;SDS011;36110;51.536;7.562;2023-02-15T16:09:53;14.98;;;6.60;;
50219;SDS011;36110;51.536;7.562;2023-02-15T16:12:19;18.20;;;7.07;;
50219;SDS011;36110;51.536;7.562;2023-02-15T16:14:45;18.73;;;8.85;;
50219;SDS011;36110;51.536;7.562;2023-02-15T16:17:16;18.23;;;9.43;;
50219;SDS011;36110;51.536;7.562;2023-02-15T16:19:53;7.53;;;4.93;;
50219;SDS011;36110;51.536;7.562;2023-02-15T16:22:23;7.22;;;5.15;;
50219;SDS011;36110;51.536;7.562;2023-02-15T16:27:49;11.18;;;7.22;;
50219;SDS011;36110;51.536;7.562;2023-02-15T16:30:32;6.10;;;4.65;;
50219;SDS011;36110;51.536;7.562;2023-02-15T16:33:06;7.40;;;4.65;;
50219;SDS011;36110;51.536;7.562;2023-02-15T16:35:41;6.53;;;4.57;;
50219;SDS011;36110;51.536;7.562;2023-02-15T16:38:23;7.45;;;4.28;;
50219;SDS011;36110;51.536;7.562;2023-02-15T16:40:59;6.55;;;4.95;;
50219;SDS011;36110;51.536;7.562;2023-02-15T16:43:26;8.15;;;5.15;;
50219;SDS011;36110;51.536;7.562;2023-02-15T16:45:58;6.97;;;5.10;;
50219;SDS011;36110;51.536;7.562;2023-02-15T16:48:31;6.05;;;4.20;;
50219;SDS011;36110;51.536;7.562;2023-02-15T16:50:57;10.52;;;5.90;;
50219;SDS011;36110;51.536;7.562;2023-02-15T16:53:24;16.13;;;8.10;;
50219;SDS011;36110;51.536;7.562;2023-02-15T16:55:52;17.50;;;8.73;;
50219;SDS011;36110;51.536;7.562;2023-02-15T16:58:23;17.42;;;8.27;;
50219;SDS011;36110;51.536;7.562;2023-02-15T17:00:54;15.07;;;9.02;;
50219;SDS011;36110;51.536;7.562;2023-02-15T17:03:22;16.02;;;7.93;;
50219;SDS011;36110;51.536;7.562;2023-02-15T17:05:53;17.08;;;8.88;;
50219;SDS011;36110;51.536;7.562;2023-02-15T17:08:27;15.70;;;8.60;;
50219;SDS011;36110;51.536;7.562;2023-02-15T17:13:24;13.60;;;7.78;;
50219;SDS011;36110;51.536;7.562;2023-02-15T17:18:25;12.77;;;7.05;;
50219;SDS011;36110;51.536;7.562;2023-02-15T17:20:53;18.63;;;9.93;;
50219;SDS011;36110;51.536;7.562;2023-02-15T17:23:33;12.25;;;6.80;;
50219;SDS011;36110;51.536;7.562;2023-02-15T17:26:02;11.80;;;6.90;;
50219;SDS011;36110;51.536;7.562;2023-02-15T17:28:40;12.32;;;6.57;;
50219;SDS011;36110;51.536;7.562;2023-02-15T17:31:12;17.90;;;10.65;;
50219;SDS011;36110;51.536;7.562;2023-02-15T17:33:39;22.58;;;10.27;;
50219;SDS011;36110;51.536;7.562;2023-02-15T17:41:37;10.32;;;6.10;;
50219;SDS011;36110;51.536;7.562;2023-02-15T17:44:02;11.05;;;5.95;;
50219;SDS011;36110;51.536;7.562;2023-02-15T17:46:30;10.82;;;5.97;;
50219;SDS011;36110;51.536;7.562;2023-02-15T17:48:59;8.55;;;6.00;;
50219;SDS011;36110;51.536;7.562;2023-02-15T17:51:25;11.00;;;6.15;;